sensor_id;sensor_type;location;lat;lon;timestamp;temperature;humidity
35680;DHT22;21803;53.586;10.040;2023-01-28T00:00:30;18.30;41.50
35680;DHT22;21803;53.586;10.040;2023-01-28T00:02:56;18.30;41.50
35680;DHT22;21803;53.586;10.040;2023-01-28T00:05:21;18.30;41.40
35680;DHT22;21803;53.586;10.040;2023-01-28T00:07:50;18.30;41.50
35680;DHT22;21803;53.586;10.040;2023-01-28T00:10:16;18.30;41.40
35680;DHT22;21803;53.586;10.040;2023-01-28T00:12:42;18.30;41.40
35680;DHT22;21803;53.586;10.040;2023-01-28T00:15:08;18.30;41.50
35680;DHT22;21803;53.586;10.040;2023-01-28T00:17:34;18.30;41.40
35680;DHT22;21803;53.586;10.040;2023-01-28T00:20:02;18.30;41.50
35680;DHT22;21803;53.586;10.040;2023-01-28T00:22:27;18.30;41.40
35680;DHT22;21803;53.586;10.040;2023-01-28T00:24:53;18.40;41.50
35680;DHT22;21803;53.586;10.040;2023-01-28T00:27:18;18.30;41.40
35680;DHT22;21803;53.586;10.040;2023-01-28T00:29:44;18.30;41.40
35680;DHT22;21803;53.586;10.040;2023-01-28T00:32:09;16.50;40.60
35680;DHT22;21803;53.586;10.040;2023-01-28T00:34:35;18.30;41.40
35680;DHT22;21803;53.586;10.040;2023-01-28T00:37:00;18.30;41.30
35680;DHT22;21803;53.586;10.040;2023-01-28T00:39:26;18.30;41.40
35680;DHT22;21803;53.586;10.040;2023-01-28T00:41:52;18.30;41.40
35680;DHT22;21803;53.586;10.040;2023-01-28T00:44:18;18.30;41.30
35680;DHT22;21803;53.586;10.040;2023-01-28T00:46:44;18.30;41.30
35680;DHT22;21803;53.586;10.040;2023-01-28T00:49:10;18.30;41.30
35680;DHT22;21803;53.586;10.040;2023-01-28T00:51:35;18.30;41.30
35680;DHT22;21803;53.586;10.040;2023-01-28T00:54:01;18.30;41.40
35680;DHT22;21803;53.586;10.040;2023-01-28T00:56:27;18.30;41.30
35680;DHT22;21803;53.586;10.040;2023-01-28T00:58:52;18.30;41.30
35680;DHT22;21803;53.586;10.040;2023-01-28T01:01:19;18.30;41.30
35680;DHT22;21803;53.586;10.040;2023-01-28T01:03:45;18.30;41.30
35680;DHT22;21803;53.586;10.040;2023-01-28T01:06:13;18.30;41.30
35680;DHT22;21803;53.586;10.040;2023-01-28T01:08:39;18.30;41.30
35680;DHT22;21803;53.586;10.040;2023-01-28T01:11:08;18.30;41.30
35680;DHT22;21803;53.586;10.040;2023-01-28T01:13:34;18.30;41.30
35680;DHT22;21803;53.586;10.040;2023-01-28T01:16:10;18.30;41.30
35680;DHT22;21803;53.586;10.040;2023-01-28T01:18:37;18.30;41.30
35680;DHT22;21803;53.586;10.040;2023-01-28T01:21:15;18.30;41.30
35680;DHT22;21803;53.586;10.040;2023-01-28T01:23:42;18.30;41.30
35680;DHT22;21803;53.586;10.040;2023-01-28T01:26:07;18.30;41.30
35680;DHT22;21803;53.586;10.040;2023-01-28T01:28:33;18.30;41.30
35680;DHT22;21803;53.586;10.040;2023-01-28T01:31:04;18.30;41.30
35680;DHT22;21803;53.586;10.040;2023-01-28T01:33:30;18.30;41.30
35680;DHT22;21803;53.586;10.040;2023-01-28T01:35:57;18.30;41.30
35680;DHT22;21803;53.586;10.040;2023-01-28T01:38:23;18.30;41.30
35680;DHT22;21803;53.586;10.040;2023-01-28T01:40:48;18.30;41.30
35680;DHT22;21803;53.586;10.040;2023-01-28T01:43:19;18.30;41.30
35680;DHT22;21803;53.586;10.040;2023-01-28T01:45:57;18.30;41.30
35680;DHT22;21803;53.586;10.040;2023-01-28T01:48:31;18.30;41.20
35680;DHT22;21803;53.586;10.040;2023-01-28T01:51:01;18.30;41.30
35680;DHT22;21803;53.586;10.040;2023-01-28T01:53:29;18.30;41.30
35680;DHT22;21803;53.586;10.040;2023-01-28T01:55:58;18.30;41.30
35680;DHT22;21803;53.586;10.040;2023-01-28T01:58:29;18.30;41.30
35680;DHT22;21803;53.586;10.040;2023-01-28T02:00:56;18.30;41.20
35680;DHT22;21803;53.586;10.040;2023-01-28T02:03:32;18.30;41.30
35680;DHT22;21803;53.586;10.040;2023-01-28T02:06:01;18.30;41.30
35680;DHT22;21803;53.586;10.040;2023-01-28T02:08:26;18.30;41.20
35680;DHT22;21803;53.586;10.040;2023-01-28T02:10:55;18.30;41.30
35680;DHT22;21803;53.586;10.040;2023-01-28T02:13:30;18.30;41.20
35680;DHT22;21803;53.586;10.040;2023-01-28T02:15:57;18.30;41.20
35680;DHT22;21803;53.586;10.040;2023-01-28T02:18:24;18.30;41.20
35680;DHT22;21803;53.586;10.040;2023-01-28T02:21:03;18.30;41.20
35680;DHT22;21803;53.586;10.040;2023-01-28T02:26:41;18.30;41.20
35680;DHT22;21803;53.586;10.040;2023-01-28T02:31:54;18.30;41.10
35680;DHT22;21803;53.586;10.040;2023-01-28T02:37:19;18.30;41.10
35680;DHT22;21803;53.586;10.040;2023-01-28T02:39:52;18.30;41.20
35680;DHT22;21803;53.586;10.040;2023-01-28T02:42:20;18.30;41.20
35680;DHT22;21803;53.586;10.040;2023-01-28T02:44:47;18.30;41.10
35680;DHT22;21803;53.586;10.040;2023-01-28T02:47:14;18.30;41.20
35680;DHT22;21803;53.586;10.040;2023-01-28T02:50:01;18.30;41.20
35680;DHT22;21803;53.586;10.040;2023-01-28T02:55:44;18.30;41.20
35680;DHT22;21803;53.586;10.040;2023-01-28T02:58:25;17.40;40.70
35680;DHT22;21803;53.586;10.040;2023-01-28T03:01:15;18.30;41.10
35680;DHT22;21803;53.586;10.040;2023-01-28T03:03:58;18.30;41.10
35680;DHT22;21803;53.586;10.040;2023-01-28T03:06:38;18.30;41.10
35680;DHT22;21803;53.586;10.040;2023-01-28T03:09:07;18.30;41.10
35680;DHT22;21803;53.586;10.040;2023-01-28T03:14:38;18.30;41.10
35680;DHT22;21803;53.586;10.040;2023-01-28T03:17:56;18.30;41.00
35680;DHT22;21803;53.586;10.040;2023-01-28T03:23:47;18.30;41.10
35680;DHT22;21803;53.586;10.040;2023-01-28T03:26:39;18.30;41.10
35680;DHT22;21803;53.586;10.040;2023-01-28T03:29:28;18.30;41.10
35680;DHT22;21803;53.586;10.040;2023-01-28T03:32:13;18.30;41.10
35680;DHT22;21803;53.586;10.040;2023-01-28T03:34:58;18.30;41.20
35680;DHT22;21803;53.586;10.040;2023-01-28T03:37:43;18.30;41.10
35680;DHT22;21803;53.586;10.040;2023-01-28T03:40:09;18.30;41.10
35680;DHT22;21803;53.586;10.040;2023-01-28T03:42:35;18.30;41.10
35680;DHT22;21803;53.586;10.040;2023-01-28T03:45:01;18.30;41.10
35680;DHT22;21803;53.586;10.040;2023-01-28T03:47:30;18.30;41.10
35680;DHT22;21803;53.586;10.040;2023-01-28T03:49:57;18.30;41.10
35680;DHT22;21803;53.586;10.040;2023-01-28T03:52:29;18.30;41.00
35680;DHT22;21803;53.586;10.040;2023-01-28T03:54:56;18.30;41.60
35680;DHT22;21803;53.586;10.040;2023-01-28T03:57:26;18.30;41.70
35680;DHT22;21803;53.586;10.040;2023-01-28T03:59:52;18.30;41.00
35680;DHT22;21803;53.586;10.040;2023-01-28T04:02:19;18.30;41.10
35680;DHT22;21803;53.586;10.040;2023-01-28T04:04:45;18.30;41.00
35680;DHT22;21803;53.586;10.040;2023-01-28T04:07:12;18.30;41.00
35680;DHT22;21803;53.586;10.040;2023-01-28T04:09:41;18.30;41.00
35680;DHT22;21803;53.586;10.040;2023-01-28T04:12:08;18.30;41.00
35680;DHT22;21803;53.586;10.040;2023-01-28T04:14:34;18.30;41.00
35680;DHT22;21803;53.586;10.040;2023-01-28T04:17:00;18.30;41.00
35680;DHT22;21803;53.586;10.040;2023-01-28T04:19:26;18.30;41.00
35680;DHT22;21803;53.586;10.040;2023-01-28T04:21:52;18.30;41.00
35680;DHT22;21803;53.586;10.040;2023-01-28T04:24:19;18.30;41.00
35680;DHT22;21803;53.586;10.040;2023-01-28T04:26:44;18.30;40.90
35680;DHT22;21803;53.586;10.040;2023-01-28T04:29:10;18.30;41.00
35680;DHT22;21803;53.586;10.040;2023-01-28T04:31:35;18.30;40.90
35680;DHT22;21803;53.586;10.040;2023-01-28T04:34:01;18.30;40.90
35680;DHT22;21803;53.586;10.040;2023-01-28T04:36:27;18.30;40.90
35680;DHT22;21803;53.586;10.040;2023-01-28T04:38:52;18.30;40.90
35680;DHT22;21803;53.586;10.040;2023-01-28T04:41:18;18.30;40.90
35680;DHT22;21803;53.586;10.040;2023-01-28T04:43:44;18.30;40.90
35680;DHT22;21803;53.586;10.040;2023-01-28T04:46:09;18.30;41.00
35680;DHT22;21803;53.586;10.040;2023-01-28T04:48:35;18.30;40.90
35680;DHT22;21803;53.586;10.040;2023-01-28T04:51:02;18.30;40.90
35680;DHT22;21803;53.586;10.040;2023-01-28T04:53:28;18.30;40.90
35680;DHT22;21803;53.586;10.040;2023-01-28T04:55:53;18.30;40.90
35680;DHT22;21803;53.586;10.040;2023-01-28T04:58:19;18.30;40.90
35680;DHT22;21803;53.586;10.040;2023-01-28T05:00:44;18.30;40.90
35680;DHT22;21803;53.586;10.040;2023-01-28T05:03:10;18.30;40.90
35680;DHT22;21803;53.586;10.040;2023-01-28T05:05:35;18.30;40.90
35680;DHT22;21803;53.586;10.040;2023-01-28T05:08:01;18.30;40.90
35680;DHT22;21803;53.586;10.040;2023-01-28T05:10:27;18.30;40.90
35680;DHT22;21803;53.586;10.040;2023-01-28T05:12:52;18.30;40.90
35680;DHT22;21803;53.586;10.040;2023-01-28T05:15:19;18.30;40.90
35680;DHT22;21803;53.586;10.040;2023-01-28T05:17:45;18.30;40.90
35680;DHT22;21803;53.586;10.040;2023-01-28T05:20:12;18.30;40.90
35680;DHT22;21803;53.586;10.040;2023-01-28T05:22:38;18.30;40.90
35680;DHT22;21803;53.586;10.040;2023-01-28T05:25:04;18.30;40.90
35680;DHT22;21803;53.586;10.040;2023-01-28T05:27:31;18.30;40.90
35680;DHT22;21803;53.586;10.040;2023-01-28T05:29:57;18.20;40.80
35680;DHT22;21803;53.586;10.040;2023-01-28T05:32:23;18.30;40.90
35680;DHT22;21803;53.586;10.040;2023-01-28T05:34:49;18.30;40.80
35680;DHT22;21803;53.586;10.040;2023-01-28T05:37:14;18.30;40.90
35680;DHT22;21803;53.586;10.040;2023-01-28T05:39:39;18.30;40.90
35680;DHT22;21803;53.586;10.040;2023-01-28T05:42:05;18.30;40.90
35680;DHT22;21803;53.586;10.040;2023-01-28T05:44:31;18.30;40.90
35680;DHT22;21803;53.586;10.040;2023-01-28T05:46:56;18.20;40.80
35680;DHT22;21803;53.586;10.040;2023-01-28T05:49:22;18.30;40.80
35680;DHT22;21803;53.586;10.040;2023-01-28T05:51:47;18.30;40.90
35680;DHT22;21803;53.586;10.040;2023-01-28T05:54:14;18.30;40.90
35680;DHT22;21803;53.586;10.040;2023-01-28T05:56:39;18.30;40.90
35680;DHT22;21803;53.586;10.040;2023-01-28T05:59:05;18.20;40.80
35680;DHT22;21803;53.586;10.040;2023-01-28T06:01:31;18.20;40.80
35680;DHT22;21803;53.586;10.040;2023-01-28T06:03:56;18.20;40.80
35680;DHT22;21803;53.586;10.040;2023-01-28T06:06:23;18.30;40.80
35680;DHT22;21803;53.586;10.040;2023-01-28T06:08:48;18.30;40.80
35680;DHT22;21803;53.586;10.040;2023-01-28T06:11:14;18.20;40.80
35680;DHT22;21803;53.586;10.040;2023-01-28T06:13:40;18.30;40.80
35680;DHT22;21803;53.586;10.040;2023-01-28T06:16:06;18.30;40.80
35680;DHT22;21803;53.586;10.040;2023-01-28T06:18:32;18.20;40.80
35680;DHT22;21803;53.586;10.040;2023-01-28T06:20:57;18.20;40.80
35680;DHT22;21803;53.586;10.040;2023-01-28T06:23:23;18.20;40.80
35680;DHT22;21803;53.586;10.040;2023-01-28T06:25:53;18.20;40.80
35680;DHT22;21803;53.586;10.040;2023-01-28T06:28:19;18.20;40.80
35680;DHT22;21803;53.586;10.040;2023-01-28T06:30:47;18.30;40.80
35680;DHT22;21803;53.586;10.040;2023-01-28T06:33:13;18.20;40.80
35680;DHT22;21803;53.586;10.040;2023-01-28T06:35:39;18.20;40.70
35680;DHT22;21803;53.586;10.040;2023-01-28T06:38:04;18.30;40.80
35680;DHT22;21803;53.586;10.040;2023-01-28T06:40:30;18.20;40.80
35680;DHT22;21803;53.586;10.040;2023-01-28T06:42:56;18.20;40.80
35680;DHT22;21803;53.586;10.040;2023-01-28T06:45:21;18.20;40.80
35680;DHT22;21803;53.586;10.040;2023-01-28T06:47:47;18.20;40.80
35680;DHT22;21803;53.586;10.040;2023-01-28T06:50:12;18.20;40.70
35680;DHT22;21803;53.586;10.040;2023-01-28T06:52:39;18.30;40.80
35680;DHT22;21803;53.586;10.040;2023-01-28T06:55:05;18.20;40.80
35680;DHT22;21803;53.586;10.040;2023-01-28T06:57:30;18.30;40.80
35680;DHT22;21803;53.586;10.040;2023-01-28T06:59:56;18.30;40.80
35680;DHT22;21803;53.586;10.040;2023-01-28T07:02:21;18.20;40.80
35680;DHT22;21803;53.586;10.040;2023-01-28T07:04:47;18.30;40.80
35680;DHT22;21803;53.586;10.040;2023-01-28T07:07:12;18.30;40.80
35680;DHT22;21803;53.586;10.040;2023-01-28T07:09:38;18.30;40.70
35680;DHT22;21803;53.586;10.040;2023-01-28T07:12:03;18.20;40.80
35680;DHT22;21803;53.586;10.040;2023-01-28T07:14:30;18.20;40.70
35680;DHT22;21803;53.586;10.040;2023-01-28T07:16:56;18.30;40.70
35680;DHT22;21803;53.586;10.040;2023-01-28T07:19:21;18.30;40.80
35680;DHT22;21803;53.586;10.040;2023-01-28T07:21:47;18.30;40.80
35680;DHT22;21803;53.586;10.040;2023-01-28T07:24:12;18.20;40.70
35680;DHT22;21803;53.586;10.040;2023-01-28T07:26:38;18.20;40.70
35680;DHT22;21803;53.586;10.040;2023-01-28T07:29:03;18.30;40.70
35680;DHT22;21803;53.586;10.040;2023-01-28T07:31:29;18.20;40.80
35680;DHT22;21803;53.586;10.040;2023-01-28T07:33:54;18.30;40.70
35680;DHT22;21803;53.586;10.040;2023-01-28T07:36:20;18.20;40.70
35680;DHT22;21803;53.586;10.040;2023-01-28T07:38:45;18.20;40.80
35680;DHT22;21803;53.586;10.040;2023-01-28T07:41:11;18.20;40.80
35680;DHT22;21803;53.586;10.040;2023-01-28T07:43:36;18.20;40.70
35680;DHT22;21803;53.586;10.040;2023-01-28T07:46:02;18.30;40.70
35680;DHT22;21803;53.586;10.040;2023-01-28T07:48:27;18.20;40.70
35680;DHT22;21803;53.586;10.040;2023-01-28T07:50:57;18.30;40.70
35680;DHT22;21803;53.586;10.040;2023-01-28T07:53:23;18.20;40.70
35680;DHT22;21803;53.586;10.040;2023-01-28T07:55:48;18.20;40.70
35680;DHT22;21803;53.586;10.040;2023-01-28T07:58:14;18.20;40.70
35680;DHT22;21803;53.586;10.040;2023-01-28T08:00:39;18.20;40.60
35680;DHT22;21803;53.586;10.040;2023-01-28T08:03:10;18.30;40.70
35680;DHT22;21803;53.586;10.040;2023-01-28T08:05:40;18.20;40.70
35680;DHT22;21803;53.586;10.040;2023-01-28T08:08:08;18.20;40.70
35680;DHT22;21803;53.586;10.040;2023-01-28T08:10:34;18.20;40.60
35680;DHT22;21803;53.586;10.040;2023-01-28T08:13:00;18.20;40.70
35680;DHT22;21803;53.586;10.040;2023-01-28T08:15:27;18.20;40.70
35680;DHT22;21803;53.586;10.040;2023-01-28T08:17:54;18.20;40.60
35680;DHT22;21803;53.586;10.040;2023-01-28T08:20:20;18.30;40.70
35680;DHT22;21803;53.586;10.040;2023-01-28T08:22:46;18.30;40.70
35680;DHT22;21803;53.586;10.040;2023-01-28T08:25:12;18.20;40.70
35680;DHT22;21803;53.586;10.040;2023-01-28T08:27:37;18.20;40.70
35680;DHT22;21803;53.586;10.040;2023-01-28T08:30:04;18.30;40.70
35680;DHT22;21803;53.586;10.040;2023-01-28T08:32:30;18.20;40.70
35680;DHT22;21803;53.586;10.040;2023-01-28T08:34:56;18.30;40.70
35680;DHT22;21803;53.586;10.040;2023-01-28T08:37:21;18.20;40.60
35680;DHT22;21803;53.586;10.040;2023-01-28T08:39:47;18.30;40.70
35680;DHT22;21803;53.586;10.040;2023-01-28T08:42:12;18.20;40.60
35680;DHT22;21803;53.586;10.040;2023-01-28T08:44:38;18.30;40.70
35680;DHT22;21803;53.586;10.040;2023-01-28T08:47:03;18.30;40.70
35680;DHT22;21803;53.586;10.040;2023-01-28T08:49:29;18.20;40.60
35680;DHT22;21803;53.586;10.040;2023-01-28T08:51:54;18.30;40.60
35680;DHT22;21803;53.586;10.040;2023-01-28T08:54:20;18.30;40.70
35680;DHT22;21803;53.586;10.040;2023-01-28T08:56:46;18.20;40.60
35680;DHT22;21803;53.586;10.040;2023-01-28T08:59:13;18.20;40.60
35680;DHT22;21803;53.586;10.040;2023-01-28T09:01:39;18.20;40.60
35680;DHT22;21803;53.586;10.040;2023-01-28T09:04:04;18.30;40.60
35680;DHT22;21803;53.586;10.040;2023-01-28T09:06:30;18.30;40.60
35680;DHT22;21803;53.586;10.040;2023-01-28T09:08:57;18.30;40.60
35680;DHT22;21803;53.586;10.040;2023-01-28T09:11:23;18.30;40.60
35680;DHT22;21803;53.586;10.040;2023-01-28T09:13:49;18.30;40.60
35680;DHT22;21803;53.586;10.040;2023-01-28T09:16:14;18.30;40.60
35680;DHT22;21803;53.586;10.040;2023-01-28T09:18:40;18.20;40.50
35680;DHT22;21803;53.586;10.040;2023-01-28T09:21:06;18.30;40.60
35680;DHT22;21803;53.586;10.040;2023-01-28T09:23:38;18.30;40.60
35680;DHT22;21803;53.586;10.040;2023-01-28T09:26:05;18.30;40.60
35680;DHT22;21803;53.586;10.040;2023-01-28T09:28:31;18.30;40.60
35680;DHT22;21803;53.586;10.040;2023-01-28T09:33:27;18.30;40.60
35680;DHT22;21803;53.586;10.040;2023-01-28T09:35:52;18.30;40.60
35680;DHT22;21803;53.586;10.040;2023-01-28T09:38:18;18.30;40.60
35680;DHT22;21803;53.586;10.040;2023-01-28T09:40:43;18.30;40.60
35680;DHT22;21803;53.586;10.040;2023-01-28T09:45:54;18.30;40.50
35680;DHT22;21803;53.586;10.040;2023-01-28T09:48:33;18.30;40.60
35680;DHT22;21803;53.586;10.040;2023-01-28T09:51:02;18.20;40.50
35680;DHT22;21803;53.586;10.040;2023-01-28T09:53:35;18.30;40.60
35680;DHT22;21803;53.586;10.040;2023-01-28T09:56:23;18.30;40.50
35680;DHT22;21803;53.586;10.040;2023-01-28T09:58:50;18.30;40.60
35680;DHT22;21803;53.586;10.040;2023-01-28T10:01:37;18.30;40.50
35680;DHT22;21803;53.586;10.040;2023-01-28T10:06:39;18.30;40.90
35680;DHT22;21803;53.586;10.040;2023-01-28T10:09:18;18.20;40.40
35680;DHT22;21803;53.586;10.040;2023-01-28T10:12:12;18.30;40.50
35680;DHT22;21803;53.586;10.040;2023-01-28T10:17:53;18.30;40.50
35680;DHT22;21803;53.586;10.040;2023-01-28T10:20:27;18.30;40.60
35680;DHT22;21803;53.586;10.040;2023-01-28T10:23:04;18.30;40.50
35680;DHT22;21803;53.586;10.040;2023-01-28T10:25:31;18.30;40.40
35680;DHT22;21803;53.586;10.040;2023-01-28T10:28:00;18.30;40.40
35680;DHT22;21803;53.586;10.040;2023-01-28T10:30:29;18.30;40.40
35680;DHT22;21803;53.586;10.040;2023-01-28T10:33:00;18.30;40.50
35680;DHT22;21803;53.586;10.040;2023-01-28T10:35:26;18.30;40.40
35680;DHT22;21803;53.586;10.040;2023-01-28T10:37:58;18.30;40.30
35680;DHT22;21803;53.586;10.040;2023-01-28T10:40:25;18.30;40.40
35680;DHT22;21803;53.586;10.040;2023-01-28T10:42:51;18.30;40.40
35680;DHT22;21803;53.586;10.040;2023-01-28T10:47:53;18.30;40.40
35680;DHT22;21803;53.586;10.040;2023-01-28T10:50:25;18.30;40.40
35680;DHT22;21803;53.586;10.040;2023-01-28T10:52:53;18.30;40.40
35680;DHT22;21803;53.586;10.040;2023-01-28T10:55:19;18.30;40.40
35680;DHT22;21803;53.586;10.040;2023-01-28T10:57:45;18.30;40.40
35680;DHT22;21803;53.586;10.040;2023-01-28T11:00:35;18.30;40.40
35680;DHT22;21803;53.586;10.040;2023-01-28T11:03:01;18.30;41.00
35680;DHT22;21803;53.586;10.040;2023-01-28T11:05:28;18.30;40.50
35680;DHT22;21803;53.586;10.040;2023-01-28T11:10:36;18.30;40.40
35680;DHT22;21803;53.586;10.040;2023-01-28T11:13:04;18.30;40.40
35680;DHT22;21803;53.586;10.040;2023-01-28T11:15:31;18.30;40.40
35680;DHT22;21803;53.586;10.040;2023-01-28T11:18:04;18.30;40.30
35680;DHT22;21803;53.586;10.040;2023-01-28T11:20:41;18.30;40.30
35680;DHT22;21803;53.586;10.040;2023-01-28T11:23:21;18.30;40.40
35680;DHT22;21803;53.586;10.040;2023-01-28T11:25:47;18.30;40.30
35680;DHT22;21803;53.586;10.040;2023-01-28T11:28:19;18.30;40.30
35680;DHT22;21803;53.586;10.040;2023-01-28T11:30:51;18.30;40.40
35680;DHT22;21803;53.586;10.040;2023-01-28T11:33:21;18.30;40.40
35680;DHT22;21803;53.586;10.040;2023-01-28T11:36:13;18.30;40.50
35680;DHT22;21803;53.586;10.040;2023-01-28T11:38:53;18.30;40.40
35680;DHT22;21803;53.586;10.040;2023-01-28T11:41:29;18.30;40.50
35680;DHT22;21803;53.586;10.040;2023-01-28T11:43:57;18.30;40.50
35680;DHT22;21803;53.586;10.040;2023-01-28T11:49:51;18.30;40.50
35680;DHT22;21803;53.586;10.040;2023-01-28T11:52:39;18.30;40.50
35680;DHT22;21803;53.586;10.040;2023-01-28T12:03:58;18.30;40.40
35680;DHT22;21803;53.586;10.040;2023-01-28T12:09:12;18.30;40.40
35680;DHT22;21803;53.586;10.040;2023-01-28T12:12:10;18.30;40.50
35680;DHT22;21803;53.586;10.040;2023-01-28T12:22:42;18.30;40.40
35680;DHT22;21803;53.586;10.040;2023-01-28T12:28:06;18.30;40.40
35680;DHT22;21803;53.586;10.040;2023-01-28T12:39:04;18.30;40.30
35680;DHT22;21803;53.586;10.040;2023-01-28T12:41:38;18.30;40.40
35680;DHT22;21803;53.586;10.040;2023-01-28T12:44:12;18.30;40.40
35680;DHT22;21803;53.586;10.040;2023-01-28T12:47:01;18.30;40.30
35680;DHT22;21803;53.586;10.040;2023-01-28T12:49:44;18.30;40.30
35680;DHT22;21803;53.586;10.040;2023-01-28T12:55:00;18.30;40.30
35680;DHT22;21803;53.586;10.040;2023-01-28T12:57:30;18.30;40.30
35680;DHT22;21803;53.586;10.040;2023-01-28T13:02:40;18.30;40.30
35680;DHT22;21803;53.586;10.040;2023-01-28T13:05:14;18.30;40.30
35680;DHT22;21803;53.586;10.040;2023-01-28T13:10:26;18.30;40.20
35680;DHT22;21803;53.586;10.040;2023-01-28T13:12:52;18.30;40.30
35680;DHT22;21803;53.586;10.040;2023-01-28T13:15:19;18.30;40.30
35680;DHT22;21803;53.586;10.040;2023-01-28T13:17:57;18.30;40.30
35680;DHT22;21803;53.586;10.040;2023-01-28T13:20:50;18.30;40.30
35680;DHT22;21803;53.586;10.040;2023-01-28T13:28:50;18.30;40.30
35680;DHT22;21803;53.586;10.040;2023-01-28T13:31:18;18.20;40.20
35680;DHT22;21803;53.586;10.040;2023-01-28T13:41:46;18.30;40.50
35680;DHT22;21803;53.586;10.040;2023-01-28T13:46:51;18.30;40.60
35680;DHT22;21803;53.586;10.040;2023-01-28T13:49:31;18.30;40.60
35680;DHT22;21803;53.586;10.040;2023-01-28T13:52:27;18.30;40.70
35680;DHT22;21803;53.586;10.040;2023-01-28T13:55:17;18.30;40.80
35680;DHT22;21803;53.586;10.040;2023-01-28T13:58:04;18.30;40.80
35680;DHT22;21803;53.586;10.040;2023-01-28T14:09:53;18.30;41.00
35680;DHT22;21803;53.586;10.040;2023-01-28T14:15:48;18.30;41.20
35680;DHT22;21803;53.586;10.040;2023-01-28T14:21:10;18.20;41.20
35680;DHT22;21803;53.586;10.040;2023-01-28T14:23:38;18.30;41.30
35680;DHT22;21803;53.586;10.040;2023-01-28T14:26:38;18.20;41.30
35680;DHT22;21803;53.586;10.040;2023-01-28T14:29:32;18.20;41.30
35680;DHT22;21803;53.586;10.040;2023-01-28T14:32:14;18.20;41.40
35680;DHT22;21803;53.586;10.040;2023-01-28T14:34:40;18.20;41.40
35680;DHT22;21803;53.586;10.040;2023-01-28T14:37:11;18.30;41.50
35680;DHT22;21803;53.586;10.040;2023-01-28T14:39:47;18.30;41.50
35680;DHT22;21803;53.586;10.040;2023-01-28T14:42:22;18.20;41.60
35680;DHT22;21803;53.586;10.040;2023-01-28T14:55:53;18.20;41.70
35680;DHT22;21803;53.586;10.040;2023-01-28T14:58:35;18.30;41.80
35680;DHT22;21803;53.586;10.040;2023-01-28T15:01:02;18.20;41.70
35680;DHT22;21803;53.586;10.040;2023-01-28T15:03:29;18.30;41.90
35680;DHT22;21803;53.586;10.040;2023-01-28T15:08:36;18.20;41.90
35680;DHT22;21803;53.586;10.040;2023-01-28T15:11:02;18.20;41.90
35680;DHT22;21803;53.586;10.040;2023-01-28T15:13:35;18.30;41.90
35680;DHT22;21803;53.586;10.040;2023-01-28T15:16:02;18.20;41.90
35680;DHT22;21803;53.586;10.040;2023-01-28T15:18:49;18.20;42.60
35680;DHT22;21803;53.586;10.040;2023-01-28T15:21:24;18.30;42.00
35680;DHT22;21803;53.586;10.040;2023-01-28T15:23:56;18.30;42.10
35680;DHT22;21803;53.586;10.040;2023-01-28T15:26:27;18.30;42.10
35680;DHT22;21803;53.586;10.040;2023-01-28T15:28:54;18.30;42.10
35680;DHT22;21803;53.586;10.040;2023-01-28T15:31:31;18.30;42.10
35680;DHT22;21803;53.586;10.040;2023-01-28T15:34:01;18.20;42.10
35680;DHT22;21803;53.586;10.040;2023-01-28T15:36:27;18.20;42.20
35680;DHT22;21803;53.586;10.040;2023-01-28T15:38:54;18.30;42.10
35680;DHT22;21803;53.586;10.040;2023-01-28T15:41:27;18.20;42.20
35680;DHT22;21803;53.586;10.040;2023-01-28T15:43:54;18.30;42.20
35680;DHT22;21803;53.586;10.040;2023-01-28T15:46:20;18.30;42.20
35680;DHT22;21803;53.586;10.040;2023-01-28T15:48:57;18.30;42.20
35680;DHT22;21803;53.586;10.040;2023-01-28T15:51:26;18.30;42.20
35680;DHT22;21803;53.586;10.040;2023-01-28T15:54:00;18.30;42.30
35680;DHT22;21803;53.586;10.040;2023-01-28T15:56:28;18.20;42.30
35680;DHT22;21803;53.586;10.040;2023-01-28T15:58:55;18.30;42.40
35680;DHT22;21803;53.586;10.040;2023-01-28T16:01:21;18.30;42.40
35680;DHT22;21803;53.586;10.040;2023-01-28T16:04:05;18.20;42.30
35680;DHT22;21803;53.586;10.040;2023-01-28T16:06:38;18.30;42.40
35680;DHT22;21803;53.586;10.040;2023-01-28T16:09:20;18.30;42.40
35680;DHT22;21803;53.586;10.040;2023-01-28T16:11:46;18.20;42.40
35680;DHT22;21803;53.586;10.040;2023-01-28T16:14:37;18.30;42.40
35680;DHT22;21803;53.586;10.040;2023-01-28T16:17:06;18.30;42.40
35680;DHT22;21803;53.586;10.040;2023-01-28T16:19:37;18.30;42.40
35680;DHT22;21803;53.586;10.040;2023-01-28T16:22:05;18.30;42.50
35680;DHT22;21803;53.586;10.040;2023-01-28T16:24:33;18.30;42.50
35680;DHT22;21803;53.586;10.040;2023-01-28T16:27:05;18.20;42.40
35680;DHT22;21803;53.586;10.040;2023-01-28T16:29:32;18.30;42.50
35680;DHT22;21803;53.586;10.040;2023-01-28T16:31:59;18.20;42.40
35680;DHT22;21803;53.586;10.040;2023-01-28T16:34:25;18.30;42.50
35680;DHT22;21803;53.586;10.040;2023-01-28T16:36:54;18.30;42.50
35680;DHT22;21803;53.586;10.040;2023-01-28T16:39:21;18.30;42.50
35680;DHT22;21803;53.586;10.040;2023-01-28T16:41:46;18.30;42.50
35680;DHT22;21803;53.586;10.040;2023-01-28T16:44:14;18.30;42.50
35680;DHT22;21803;53.586;10.040;2023-01-28T16:46:40;18.30;42.50
35680;DHT22;21803;53.586;10.040;2023-01-28T16:49:06;18.30;42.50
35680;DHT22;21803;53.586;10.040;2023-01-28T16:51:32;18.20;42.50
35680;DHT22;21803;53.586;10.040;2023-01-28T16:53:58;18.20;42.50
35680;DHT22;21803;53.586;10.040;2023-01-28T16:56:26;18.20;42.60
35680;DHT22;21803;53.586;10.040;2023-01-28T16:58:52;18.30;42.70
35680;DHT22;21803;53.586;10.040;2023-01-28T17:01:18;18.20;42.60
35680;DHT22;21803;53.586;10.040;2023-01-28T17:03:44;18.20;42.60
35680;DHT22;21803;53.586;10.040;2023-01-28T17:06:15;18.20;42.60
35680;DHT22;21803;53.586;10.040;2023-01-28T17:08:41;18.20;42.70
35680;DHT22;21803;53.586;10.040;2023-01-28T17:11:06;18.20;42.70
35680;DHT22;21803;53.586;10.040;2023-01-28T17:13:32;18.20;42.70
35680;DHT22;21803;53.586;10.040;2023-01-28T17:16:01;18.20;42.70
35680;DHT22;21803;53.586;10.040;2023-01-28T17:18:27;18.20;42.70
35680;DHT22;21803;53.586;10.040;2023-01-28T17:20:53;18.20;42.70
35680;DHT22;21803;53.586;10.040;2023-01-28T17:23:18;18.20;42.80
35680;DHT22;21803;53.586;10.040;2023-01-28T17:25:47;18.20;42.80
35680;DHT22;21803;53.586;10.040;2023-01-28T17:28:13;18.20;42.80
35680;DHT22;21803;53.586;10.040;2023-01-28T17:30:39;18.20;42.80